Terminal Aerodrome Forecast
Issued by NWS

Home | Current Version | Previous Version | Text Only | Print | Product List | Glossary On
Versions: 1 2 3 4 5 6 7 8 9 10 11 12
000
FTUS42 TJSJ 290520
TAFKPK
TAF
TKPK 290520Z 2906/3006 00000KT P6SM FEW022
     FM291300 04010KT P6SM SCT020
     FM292300 VRB05KT P6SM FEW018
      AMD NOT SKED TIL 291100=

USA.gov is the U.S. government's official web portal to all federal, state and local government web resources and services.